createdAt,value
2018-04-17T00:01:51.227Z,99.90
2018-04-17T00:04:18.817Z,99.90
2018-04-17T00:06:46.413Z,99.90
2018-04-17T00:09:14.006Z,99.90
2018-04-17T00:11:42.422Z,99.90
2018-04-17T00:14:10.082Z,99.90
2018-04-17T00:16:37.677Z,99.90
2018-04-17T00:19:05.275Z,99.90
2018-04-17T00:21:32.889Z,99.90
2018-04-17T00:24:01.251Z,99.90
2018-04-17T00:26:28.834Z,99.90
2018-04-17T00:28:56.451Z,99.90
2018-04-17T00:31:24.039Z,99.90
2018-04-17T00:33:51.619Z,99.90
2018-04-17T00:36:19.226Z,99.90
2018-04-17T00:38:46.812Z,99.90
2018-04-17T00:41:14.402Z,99.90
2018-04-17T00:43:42.783Z,99.90
2018-04-17T00:46:11.145Z,99.90
2018-04-17T00:48:38.736Z,99.90
2018-04-17T00:51:06.350Z,99.90
2018-04-17T00:53:45.646Z,99.90
2018-04-17T00:56:13.275Z,99.90
2018-04-17T00:58:40.871Z,99.90
2018-04-17T01:01:08.454Z,99.90
2018-04-17T01:03:36.069Z,99.90
2018-04-17T01:06:04.428Z,99.90
2018-04-17T01:08:32.008Z,99.90
2018-04-17T01:10:59.625Z,99.90
2018-04-17T01:13:27.217Z,99.90
2018-04-17T01:15:54.807Z,99.90
2018-04-17T01:18:22.422Z,99.90
2018-04-17T01:20:50.782Z,99.90
2018-04-17T01:23:18.379Z,99.90
2018-04-17T01:25:46.759Z,99.90
2018-04-17T01:28:14.342Z,99.90
2018-04-17T01:30:41.943Z,99.90
2018-04-17T01:33:09.558Z,99.90
2018-04-17T01:35:37.175Z,99.90
2018-04-17T01:38:04.783Z,99.90
2018-04-17T01:40:32.399Z,99.90
2018-04-17T01:42:59.992Z,99.90
2018-04-17T01:45:28.337Z,99.90
2018-04-17T01:47:55.960Z,99.90
2018-04-17T01:50:24.308Z,99.90
2018-04-17T01:52:51.886Z,99.90
2018-04-17T01:55:19.481Z,99.90
2018-04-17T01:57:47.078Z,99.90
2018-04-17T02:00:14.698Z,99.90
2018-04-17T02:02:42.287Z,99.90
2018-04-17T02:05:09.881Z,99.90
2018-04-17T02:07:38.238Z,99.90
2018-04-17T02:10:05.817Z,99.90
2018-04-17T02:12:33.426Z,99.90
2018-04-17T02:15:01.787Z,99.90
2018-04-17T02:17:29.387Z,99.90
2018-04-17T02:19:57.753Z,99.90
2018-04-17T02:22:25.349Z,99.90
2018-04-17T02:24:53.731Z,99.90
2018-04-17T02:27:21.306Z,99.90
2018-04-17T02:29:48.882Z,99.90
2018-04-17T02:32:16.567Z,99.90
2018-04-17T02:34:44.117Z,99.90
2018-04-17T02:37:11.727Z,99.90
2018-04-17T02:39:39.323Z,99.90
2018-04-17T02:42:06.927Z,99.90
2018-04-17T02:44:34.535Z,99.90
2018-04-17T02:47:02.902Z,99.90
2018-04-17T02:49:30.507Z,99.90
2018-04-17T02:51:58.095Z,99.90
2018-04-17T02:54:25.672Z,99.90
2018-04-17T02:56:53.264Z,99.90
2018-04-17T02:59:20.866Z,99.90
2018-04-17T03:01:48.470Z,99.90
2018-04-17T03:04:16.906Z,99.90
2018-04-17T03:06:44.486Z,99.90
2018-04-17T03:09:12.085Z,99.90
2018-04-17T03:11:39.679Z,99.90
2018-04-17T03:14:08.047Z,99.90
2018-04-17T03:16:35.642Z,99.90
2018-04-17T03:19:03.990Z,99.90
2018-04-17T03:21:31.578Z,99.90
2018-04-17T03:23:59.254Z,99.90
2018-04-17T03:26:26.879Z,99.90
2018-04-17T03:28:54.463Z,99.90
2018-04-17T03:31:22.038Z,99.90
2018-04-17T03:33:49.643Z,99.90
2018-04-17T03:36:17.230Z,99.90
2018-04-17T03:38:44.863Z,99.90
2018-04-17T03:41:12.453Z,99.90
2018-04-17T03:43:40.268Z,99.90
2018-04-17T03:46:08.644Z,99.90
2018-04-17T03:48:36.451Z,99.90
2018-04-17T03:51:04.061Z,99.90
2018-04-17T03:53:31.638Z,99.90
2018-04-17T03:55:59.222Z,99.90
2018-04-17T03:58:26.826Z,99.90
2018-04-17T04:00:55.186Z,99.90
2018-04-17T04:03:22.846Z,99.90
2018-04-17T04:05:50.431Z,99.90
2018-04-17T04:08:18.018Z,99.90
2018-04-17T04:10:45.615Z,99.90
2018-04-17T04:13:13.975Z,99.90
2018-04-17T04:15:41.692Z,99.90
2018-04-17T04:18:21.112Z,99.90
2018-04-17T04:21:00.599Z,99.90
2018-04-17T04:23:40.237Z,99.90
2018-04-17T04:26:20.469Z,99.90
2018-04-17T04:28:48.047Z,99.90
2018-04-17T04:31:15.638Z,99.90
2018-04-17T04:33:43.255Z,99.90
2018-04-17T04:36:10.832Z,99.90
2018-04-17T04:38:38.435Z,99.90
2018-04-17T04:41:06.026Z,99.90
2018-04-17T04:43:33.615Z,99.90
2018-04-17T04:46:01.230Z,99.90
2018-04-17T04:48:28.820Z,99.90
2018-04-17T04:50:56.430Z,99.90
2018-04-17T04:53:24.075Z,99.90
2018-04-17T04:55:51.651Z,99.90
2018-04-17T04:58:19.261Z,99.90
2018-04-17T05:00:46.858Z,99.90
2018-04-17T05:03:14.456Z,99.90
2018-04-17T05:05:42.051Z,99.90
2018-04-17T05:08:09.627Z,99.90
2018-04-17T05:10:37.252Z,99.90
2018-04-17T05:13:04.884Z,99.90
2018-04-17T05:15:32.510Z,99.90
2018-04-17T05:18:00.118Z,99.90
2018-04-17T05:20:27.774Z,99.90
2018-04-17T05:22:55.398Z,99.90
2018-04-17T05:25:23.753Z,99.90
2018-04-17T05:27:51.363Z,99.90
2018-04-17T05:30:19.737Z,99.90
2018-04-17T05:32:47.337Z,99.90
2018-04-17T05:35:15.701Z,99.90
2018-04-17T05:37:43.291Z,99.90
2018-04-17T05:40:11.738Z,99.90
2018-04-17T05:42:39.307Z,99.90
2018-04-17T05:45:06.896Z,99.90
2018-04-17T05:47:34.505Z,99.90
2018-04-17T05:50:02.871Z,99.90
2018-04-17T05:52:30.491Z,99.90
2018-04-17T05:54:58.319Z,99.90
2018-04-17T05:57:25.915Z,99.90
2018-04-17T05:59:53.526Z,99.90
2018-04-17T06:02:21.126Z,99.90
2018-04-17T06:04:48.746Z,99.90
2018-04-17T06:07:17.110Z,99.90
2018-04-17T06:09:45.558Z,99.90
2018-04-17T06:12:13.160Z,99.90
2018-04-17T06:14:40.767Z,99.90
2018-04-17T06:17:09.171Z,99.90
2018-04-17T06:19:37.524Z,99.90
2018-04-17T06:22:05.107Z,99.90
2018-04-17T06:24:32.767Z,99.90
2018-04-17T06:27:00.375Z,99.90
2018-04-17T06:29:28.749Z,99.90
2018-04-17T06:31:56.329Z,99.90
2018-04-17T06:34:24.122Z,99.90
2018-04-17T06:36:52.487Z,99.90
2018-04-17T06:39:20.078Z,99.90
2018-04-17T06:41:47.837Z,99.90
2018-04-17T06:44:15.629Z,99.90
2018-04-17T06:46:43.995Z,99.90
2018-04-17T06:49:11.634Z,99.90
2018-04-17T06:51:39.305Z,99.90
2018-04-17T06:54:07.030Z,99.90
2018-04-17T06:56:34.705Z,99.90
2018-04-17T06:59:03.083Z,99.90
2018-04-17T07:01:30.706Z,99.90
2018-04-17T07:03:59.062Z,99.90
2018-04-17T07:06:26.683Z,99.90
2018-04-17T07:08:54.274Z,99.90
2018-04-17T07:11:21.861Z,99.90
2018-04-17T07:13:49.475Z,99.90
2018-04-17T07:16:17.063Z,99.90
2018-04-17T07:18:45.438Z,99.90
2018-04-17T07:21:13.021Z,99.90
2018-04-17T07:23:40.621Z,99.90
2018-04-17T07:26:08.260Z,99.90
2018-04-17T07:28:35.838Z,99.90
2018-04-17T07:31:04.210Z,99.90
2018-04-17T07:33:31.802Z,99.90
2018-04-17T07:36:00.155Z,99.90
2018-04-17T07:38:27.755Z,99.90
2018-04-17T07:40:55.359Z,99.90
2018-04-17T07:43:23.026Z,99.90
2018-04-17T07:45:50.629Z,99.90
2018-04-17T07:48:30.085Z,99.90
2018-04-17T07:50:57.677Z,99.90
2018-04-17T07:53:25.270Z,99.90
2018-04-17T07:55:52.869Z,99.90
2018-04-17T07:58:21.219Z,99.90
2018-04-17T08:00:48.834Z,99.90
2018-04-17T08:03:17.189Z,99.90
2018-04-17T08:05:44.779Z,99.90
2018-04-17T08:08:12.393Z,99.90
2018-04-17T08:10:39.999Z,99.90
2018-04-17T08:13:07.611Z,99.90
2018-04-17T08:15:35.968Z,99.90
2018-04-17T08:18:03.562Z,99.90
2018-04-17T08:20:31.175Z,99.90
2018-04-17T08:22:58.768Z,99.90
2018-04-17T08:25:26.386Z,99.90
2018-04-17T08:27:53.978Z,99.90
2018-04-17T08:30:21.583Z,99.90
2018-04-17T08:32:49.190Z,99.90
2018-04-17T08:35:16.770Z,99.90
2018-04-17T08:37:44.391Z,99.90
2018-04-17T08:40:11.987Z,99.90
2018-04-17T08:42:39.581Z,99.90
2018-04-17T08:45:07.195Z,99.90
2018-04-17T08:47:34.778Z,99.90
2018-04-17T08:50:02.430Z,99.90
2018-04-17T08:52:30.795Z,99.90
2018-04-17T08:54:58.452Z,99.90
2018-04-17T08:57:26.054Z,99.90
2018-04-17T08:59:53.643Z,99.90
2018-04-17T09:02:22.027Z,99.90
2018-04-17T09:04:49.601Z,99.90
2018-04-17T09:07:17.189Z,99.90
2018-04-17T09:09:45.569Z,99.90
2018-04-17T09:12:13.917Z,99.90
2018-04-17T09:14:41.539Z,99.90
2018-04-17T09:17:09.928Z,99.90
2018-04-17T09:19:37.497Z,99.90
2018-04-17T09:22:05.858Z,99.90
2018-04-17T09:24:33.445Z,99.90
2018-04-17T09:27:01.027Z,99.90
2018-04-17T09:29:29.405Z,99.90
2018-04-17T09:31:56.998Z,99.90
2018-04-17T09:34:25.417Z,99.90
2018-04-17T09:36:52.989Z,99.90
2018-04-17T09:39:20.573Z,99.90
2018-04-17T09:41:48.179Z,99.90
2018-04-17T09:44:15.765Z,99.90
2018-04-17T09:46:43.378Z,99.90
2018-04-17T09:49:10.969Z,99.90
2018-04-17T09:51:38.560Z,99.90
2018-04-17T09:54:06.153Z,99.90
2018-04-17T09:56:33.734Z,99.90
2018-04-17T09:59:01.339Z,99.90
2018-04-17T10:01:28.917Z,99.90
2018-04-17T10:03:56.521Z,99.90
2018-04-17T10:06:24.121Z,99.90
2018-04-17T10:08:51.716Z,99.90
2018-04-17T10:11:19.310Z,99.40
2018-04-17T10:13:46.893Z,95.10
2018-04-17T10:16:14.477Z,98.40
2018-04-17T10:18:42.072Z,99.80
2018-04-17T10:21:09.630Z,99.80
2018-04-17T10:23:37.219Z,96.40
2018-04-17T10:26:04.778Z,90.10
2018-04-17T10:28:32.372Z,86.30
2018-04-17T10:30:59.982Z,94.10
2018-04-17T10:33:27.552Z,93.30
2018-04-17T10:35:55.134Z,92.90
2018-04-17T10:38:22.722Z,94.40
2018-04-17T10:40:51.057Z,89.30
2018-04-17T10:43:18.637Z,89.30
2018-04-17T10:45:47.327Z,90.80
2018-04-17T10:48:14.921Z,89.50
2018-04-17T10:50:42.487Z,90.40
2018-04-17T10:53:10.499Z,87.10
2018-04-17T10:55:38.862Z,87.30
2018-04-17T10:58:06.434Z,87.40
2018-04-17T11:00:34.024Z,88.00
2018-04-17T11:03:02.386Z,89.40
2018-04-17T11:05:29.955Z,89.30
2018-04-17T11:07:57.573Z,93.50
2018-04-17T11:10:25.189Z,92.70
2018-04-17T11:12:52.814Z,90.00
2018-04-17T11:15:20.405Z,92.60
2018-04-17T11:17:47.987Z,92.10
2018-04-17T11:20:15.592Z,89.90
2018-04-17T11:22:43.203Z,92.70
2018-04-17T11:25:11.603Z,95.30
2018-04-17T11:27:39.184Z,95.20
2018-04-17T11:30:06.766Z,92.50
2018-04-17T11:32:34.371Z,92.50
2018-04-17T11:35:01.987Z,93.10
2018-04-17T11:37:30.388Z,91.60
2018-04-17T11:39:57.991Z,91.60
2018-04-17T11:42:25.574Z,93.40
2018-04-17T11:44:53.173Z,93.50
2018-04-17T11:47:20.767Z,94.30
2018-04-17T11:49:49.147Z,89.60
2018-04-17T11:52:16.739Z,89.50
2018-04-17T11:54:44.354Z,90.60
2018-04-17T11:57:11.978Z,90.00
2018-04-17T11:59:40.354Z,91.10
2018-04-17T12:02:07.965Z,91.10
2018-04-17T12:04:35.571Z,90.60
2018-04-17T12:07:03.129Z,88.10
2018-04-17T12:09:30.712Z,85.90
2018-04-17T12:11:58.270Z,85.80
2018-04-17T12:14:26.626Z,85.00
2018-04-17T12:16:54.218Z,85.80
2018-04-17T12:19:21.783Z,85.60
2018-04-17T12:21:49.387Z,84.90
2018-04-17T12:24:16.955Z,82.40
2018-04-17T12:26:45.310Z,87.30
2018-04-17T12:29:12.871Z,87.30
2018-04-17T12:31:40.445Z,87.10
2018-04-17T12:34:08.027Z,82.80
2018-04-17T12:36:35.593Z,83.30
2018-04-17T12:39:03.193Z,82.10
2018-04-17T12:41:31.511Z,80.40
2018-04-17T12:43:59.069Z,80.30
2018-04-17T12:46:27.412Z,74.30
2018-04-17T12:48:54.976Z,74.50
2018-04-17T12:51:22.567Z,74.50
2018-04-17T12:53:50.125Z,77.00
2018-04-17T12:56:17.673Z,74.30
2018-04-17T12:58:45.258Z,70.40
2018-04-17T13:01:12.826Z,71.50
2018-04-17T13:03:40.410Z,69.70
2018-04-17T13:06:07.983Z,72.50
2018-04-17T13:08:35.534Z,70.00
2018-04-17T13:11:03.122Z,69.80
2018-04-17T13:13:30.715Z,67.40
2018-04-17T13:15:58.322Z,68.40
2018-04-17T13:18:26.668Z,58.70
2018-04-17T13:20:54.238Z,58.70
2018-04-17T13:23:21.831Z,54.30
2018-04-17T13:25:49.405Z,50.90
2018-04-17T13:28:17.000Z,49.00
2018-04-17T13:30:45.331Z,43.50
2018-04-17T13:33:12.939Z,43.40
2018-04-17T13:35:40.527Z,37.70
2018-04-17T13:38:08.090Z,32.20
2018-04-17T13:40:35.689Z,31.20
2018-04-17T13:43:04.031Z,27.70
2018-04-17T13:45:31.599Z,27.70
2018-04-17T13:47:59.181Z,34.10
2018-04-17T13:50:26.763Z,33.80
2018-04-17T13:52:54.342Z,30.10
2018-04-17T13:55:21.936Z,26.50
2018-04-17T13:57:49.503Z,29.00
2018-04-17T14:00:17.088Z,27.60
2018-04-17T14:02:45.461Z,25.30
2018-04-17T14:05:13.030Z,25.20
2018-04-17T14:07:40.602Z,23.60
2018-04-17T14:10:08.180Z,22.30
2018-04-17T14:12:35.767Z,21.70
2018-04-17T14:15:04.099Z,27.10
2018-04-17T14:17:31.697Z,26.70
2018-04-17T14:19:59.291Z,28.00
2018-04-17T14:22:26.870Z,32.00
2018-04-17T14:24:55.222Z,29.40
2018-04-17T14:27:22.779Z,29.30
2018-04-17T14:29:50.378Z,33.60
2018-04-17T14:32:17.951Z,31.30
2018-04-17T14:34:45.514Z,34.20
2018-04-17T14:37:13.115Z,34.30
2018-04-17T14:39:40.731Z,36.00
2018-04-17T14:42:08.326Z,37.60
2018-04-17T14:44:35.890Z,37.60
2018-04-17T14:47:03.499Z,39.90
2018-04-17T14:49:31.144Z,37.60
2018-04-17T14:51:58.708Z,35.60
2018-04-17T14:54:26.315Z,38.40
2018-04-17T14:56:53.895Z,38.00
2018-04-17T14:59:22.255Z,34.10
2018-04-17T15:01:49.825Z,33.90
2018-04-17T15:04:17.390Z,36.90
2018-04-17T15:06:45.018Z,36.70
2018-04-17T15:09:12.609Z,38.60
2018-04-17T15:11:40.208Z,39.80
2018-04-17T15:14:08.221Z,38.30
2018-04-17T15:16:35.819Z,38.30
2018-04-17T15:19:04.042Z,35.60
2018-04-17T15:21:31.679Z,36.90
2018-04-17T15:23:59.462Z,35.10
2018-04-17T15:26:27.099Z,35.30
2018-04-17T15:28:54.710Z,37.50
2018-04-17T15:31:22.331Z,33.00
2018-04-17T15:33:49.980Z,37.00
2018-04-17T15:36:17.589Z,38.30
2018-04-17T15:38:45.215Z,36.90
2018-04-17T15:41:12.779Z,34.50
2018-04-17T15:43:40.406Z,34.30
2018-04-17T15:46:08.007Z,35.00
2018-04-17T15:48:36.380Z,34.10
2018-04-17T15:51:03.990Z,34.10
2018-04-17T15:53:32.338Z,36.70
2018-04-17T15:55:59.963Z,36.80
2018-04-17T15:58:27.561Z,35.10
2018-04-17T16:00:55.146Z,38.30
2018-04-17T16:03:22.784Z,35.50
2018-04-17T16:05:51.392Z,33.50
2018-04-17T16:08:19.012Z,33.40
2018-04-17T16:10:46.605Z,33.60
2018-04-17T16:13:15.418Z,34.30
2018-04-17T16:15:43.049Z,34.20
2018-04-17T16:18:10.688Z,33.60
2018-04-17T16:20:38.289Z,33.20
2018-04-17T16:23:05.922Z,35.50
2018-04-17T16:25:33.510Z,34.60
2018-04-17T16:28:01.129Z,33.40
2018-04-17T16:30:28.719Z,34.20
2018-04-17T16:32:57.123Z,31.90
2018-04-17T16:35:25.487Z,31.60
2018-04-17T16:37:53.078Z,31.60
2018-04-17T16:40:21.473Z,33.40
2018-04-17T16:42:49.823Z,32.30
2018-04-17T16:45:17.440Z,32.20
2018-04-17T16:47:45.799Z,29.80
2018-04-17T16:50:13.391Z,29.70
2018-04-17T16:52:40.997Z,30.50
2018-04-17T16:55:08.573Z,31.50
2018-04-17T16:57:36.180Z,31.70
2018-04-17T17:00:03.814Z,32.10
2018-04-17T17:02:31.411Z,32.50
2018-04-17T17:04:59.027Z,33.20
2018-04-17T17:07:26.618Z,33.70
2018-04-17T17:09:55.005Z,35.50
2018-04-17T17:12:23.370Z,36.20
2018-04-17T17:14:50.980Z,36.10
2018-04-17T17:17:19.363Z,37.10
2018-04-17T17:19:47.725Z,37.20
2018-04-17T17:22:15.348Z,37.10
2018-04-17T17:24:42.933Z,37.30
2018-04-17T17:27:10.605Z,36.20
2018-04-17T17:29:40.019Z,36.30
2018-04-17T17:32:07.707Z,37.40
2018-04-17T17:34:35.318Z,38.00
2018-04-17T17:37:02.934Z,38.00
2018-04-17T17:39:30.534Z,40.60
2018-04-17T17:41:58.138Z,41.10
2018-04-17T17:44:25.736Z,41.40
2018-04-17T17:46:54.110Z,45.90
2018-04-17T17:49:21.721Z,45.80
2018-04-17T17:51:49.321Z,47.70
2018-04-17T17:54:16.957Z,49.00
2018-04-17T17:56:45.316Z,52.90
2018-04-17T17:59:12.945Z,52.90
2018-04-17T18:01:40.581Z,57.20
2018-04-17T18:04:08.938Z,56.70
2018-04-17T18:06:36.857Z,56.40
2018-04-17T18:09:06.014Z,60.90
2018-04-17T18:11:33.663Z,60.80
2018-04-17T18:14:01.347Z,60.30
2018-04-17T18:16:28.962Z,61.40
2018-04-17T18:18:56.630Z,65.50
2018-04-17T18:21:24.264Z,73.50
2018-04-17T18:23:51.850Z,78.30
2018-04-17T18:26:19.474Z,82.70
2018-04-17T18:28:47.142Z,87.20
2018-04-17T18:31:14.766Z,84.00
2018-04-17T18:33:42.376Z,84.10
2018-04-17T18:36:09.954Z,84.60
2018-04-17T18:38:37.611Z,87.00
2018-04-17T18:41:05.205Z,95.70
2018-04-17T18:43:32.862Z,98.20
2018-04-17T18:46:00.445Z,99.40
2018-04-17T18:48:28.061Z,97.80
2018-04-17T18:50:55.674Z,97.80
2018-04-17T18:53:23.871Z,97.20
2018-04-17T18:55:51.486Z,97.90
2018-04-17T18:58:19.843Z,99.90
2018-04-17T19:00:47.432Z,99.90
2018-04-17T19:03:15.042Z,99.90
2018-04-17T19:05:42.655Z,99.90
2018-04-17T19:08:10.273Z,99.90
2018-04-17T19:10:37.891Z,99.90
2018-04-17T19:13:05.484Z,99.90
2018-04-17T19:15:33.094Z,99.90
2018-04-17T19:18:01.456Z,99.90
2018-04-17T19:20:29.215Z,99.90
2018-04-17T19:22:58.277Z,99.90
2018-04-17T19:25:26.639Z,99.90
2018-04-17T19:27:54.254Z,99.90
2018-04-17T19:30:22.820Z,99.90
2018-04-17T19:32:50.452Z,99.90
2018-04-17T19:35:18.063Z,99.90
2018-04-17T19:37:46.727Z,99.90
2018-04-17T19:40:14.349Z,99.90
2018-04-17T19:42:42.733Z,99.90
2018-04-17T19:45:10.430Z,99.90
2018-04-17T19:47:38.024Z,99.90
2018-04-17T19:50:05.603Z,99.90
2018-04-17T19:52:33.211Z,99.90
2018-04-17T19:55:00.803Z,99.90
2018-04-17T19:57:29.199Z,99.90
2018-04-17T19:59:57.558Z,99.90
2018-04-17T20:02:25.151Z,99.90
2018-04-17T20:04:52.759Z,99.90
2018-04-17T20:07:20.350Z,99.90
2018-04-17T20:09:47.962Z,99.90
2018-04-17T20:12:15.551Z,99.90
2018-04-17T20:14:43.906Z,99.90
2018-04-17T20:17:11.538Z,99.90
2018-04-17T20:19:39.127Z,99.90
2018-04-17T20:22:06.799Z,99.90
2018-04-17T20:24:34.382Z,99.90
2018-04-17T20:27:01.974Z,99.90
2018-04-17T20:29:29.571Z,99.90
2018-04-17T20:31:57.202Z,99.90
2018-04-17T20:34:24.814Z,99.90
2018-04-17T20:36:52.402Z,99.90
2018-04-17T20:39:19.991Z,99.90
2018-04-17T20:41:49.136Z,99.90
2018-04-17T20:44:16.735Z,99.90
2018-04-17T20:46:44.349Z,99.90
2018-04-17T20:49:13.043Z,99.90
2018-04-17T20:51:41.390Z,99.90
2018-04-17T20:54:08.998Z,99.90
2018-04-17T20:56:36.585Z,99.90
2018-04-17T20:59:04.959Z,99.90
2018-04-17T21:01:32.542Z,99.90
2018-04-17T21:04:00.885Z,99.90
2018-04-17T21:06:28.486Z,99.90
2018-04-17T21:08:56.082Z,99.90
2018-04-17T21:11:24.458Z,99.90
2018-04-17T21:13:52.046Z,99.90
2018-04-17T21:16:20.406Z,99.90
2018-04-17T21:18:49.276Z,99.90
2018-04-17T21:21:16.866Z,99.90
2018-04-17T21:23:44.466Z,99.90
2018-04-17T21:26:12.064Z,99.90
2018-04-17T21:28:40.427Z,99.90
2018-04-17T21:31:08.030Z,99.90
2018-04-17T21:33:36.379Z,99.90
2018-04-17T21:36:03.987Z,99.90
2018-04-17T21:38:32.346Z,99.90
2018-04-17T21:40:59.931Z,99.90
2018-04-17T21:43:27.550Z,99.90
2018-04-17T21:45:55.939Z,99.90
2018-04-17T21:48:23.527Z,99.90
2018-04-17T21:50:51.125Z,99.90
2018-04-17T21:53:18.698Z,99.90
2018-04-17T21:55:46.323Z,99.90
2018-04-17T21:58:14.695Z,99.90
2018-04-17T22:00:43.061Z,99.90
2018-04-17T22:03:10.670Z,99.90
2018-04-17T22:05:39.024Z,99.90
2018-04-17T22:08:06.629Z,99.90
2018-04-17T22:10:34.974Z,99.90
2018-04-17T22:13:02.554Z,99.90
2018-04-17T22:15:30.149Z,99.90
2018-04-17T22:17:57.743Z,99.90
2018-04-17T22:20:26.123Z,99.90
2018-04-17T22:22:54.475Z,99.90
2018-04-17T22:25:22.067Z,99.90
2018-04-17T22:27:49.662Z,99.90
2018-04-17T22:30:17.243Z,99.90
2018-04-17T22:32:45.609Z,99.90
2018-04-17T22:35:13.196Z,99.90
2018-04-17T22:37:40.834Z,99.90
2018-04-17T22:40:08.434Z,99.90
2018-04-17T22:42:36.014Z,99.90
2018-04-17T22:45:03.623Z,99.90
2018-04-17T22:47:31.330Z,99.90
2018-04-17T22:49:58.923Z,99.90
2018-04-17T22:52:27.335Z,99.90
2018-04-17T22:54:55.692Z,99.90
2018-04-17T22:57:23.743Z,99.90
2018-04-17T22:59:51.332Z,99.90
2018-04-17T23:02:18.910Z,99.90
2018-04-17T23:04:46.511Z,99.90
2018-04-17T23:07:14.091Z,99.90
2018-04-17T23:09:41.704Z,99.90
2018-04-17T23:12:09.277Z,99.90
2018-04-17T23:14:36.854Z,99.90
2018-04-17T23:17:04.450Z,99.90
2018-04-17T23:19:32.030Z,99.90
2018-04-17T23:21:59.639Z,99.90
2018-04-17T23:24:27.236Z,99.90
2018-04-17T23:26:54.811Z,99.90
2018-04-17T23:29:22.412Z,99.90
2018-04-17T23:31:49.985Z,99.90
2018-04-17T23:34:17.586Z,99.90
2018-04-17T23:36:45.162Z,99.90
2018-04-17T23:39:12.749Z,99.90
2018-04-17T23:41:40.347Z,99.90
2018-04-17T23:44:07.913Z,99.90
2018-04-17T23:46:35.517Z,99.90
2018-04-17T23:49:03.094Z,99.90
2018-04-17T23:51:30.666Z,99.90
2018-04-17T23:53:58.261Z,99.90
2018-04-17T23:56:25.844Z,99.90
2018-04-17T23:58:53.451Z,99.90
